Time;durP1;ratioP1;P1;durP2;ratioP2;P2;SDS_P1;SDS_P2;PMS_P1;PMS_P2;Temp;Humidity;BMP_temperature;BMP_pressure;BME280_temperature;BME280_humidity;BME280_pressure;Samples;Min_cycle;Max_cycle;Signal;HPM_P1;HPM_P2
2023/08/20 00:00:41;;;;;;;;;4.33;3.00;;;;;25.34;58.56;101867.72;1996302;28;3466574;-74
2023/08/20 00:01:57;;;;;;;;;5.00;4.00;;;;;25.32;58.93;101862.47;1983782;28;2743553;-74
2023/08/20 00:03:12;;;;;;;;;4.00;4.00;;;;;25.31;58.92;101865.28;1987400;28;3458587;-74
2023/08/20 00:04:26;;;;;;;;;4.33;4.33;;;;;25.29;58.87;101868.09;1987525;28;2750337;-74
2023/08/20 00:05:37;;;;;;;;;3.00;3.00;;;;;25.28;58.78;101861.00;1994554;28;2746101;-74
2023/08/20 00:06:50;;;;;;;;;5.67;5.00;;;;;25.26;58.77;101862.97;2014965;28;2748182;-74
2023/08/20 00:08:01;;;;;;;;;5.33;4.33;;;;;25.24;59.05;101864.91;1964071;28;3453420;-74
2023/08/20 00:09:12;;;;;;;;;3.67;3.67;;;;;25.22;59.16;101866.84;1995553;28;3463827;-72
2023/08/20 00:10:23;;;;;;;;;4.00;3.00;;;;;25.20;58.50;101860.75;2001159;28;2739387;-75
2023/08/20 00:11:36;;;;;;;;;2.50;2.50;;;;;25.15;58.71;101867.34;2011899;28;2740922;-75
2023/08/20 00:12:46;;;;;;;;;4.00;4.00;;;;;25.11;58.70;101865.88;1987567;28;2750612;-75
2023/08/20 00:13:57;;;;;;;;;4.00;3.00;;;;;25.08;58.01;101862.56;2003095;28;2748203;-75
2023/08/20 00:15:08;;;;;;;;;6.00;4.00;;;;;25.05;58.73;101866.34;1999194;28;3465861;-75
2023/08/20 00:16:19;;;;;;;;;3.67;3.00;;;;;25.03;58.50;101862.91;1993672;28;2747212;-75
2023/08/20 00:17:36;;;;;;;;;2.00;1.00;;;;;24.99;58.93;101864.13;2003315;28;2726317;-75
2023/08/20 00:18:50;;;;;;;;;2.83;1.33;;;;;24.98;58.39;101860.56;2011821;28;2725266;-75
2023/08/20 00:20:01;;;;;;;;;4.67;3.67;;;;;24.95;57.97;101867.03;1965197;28;2745076;-75
2023/08/20 00:21:13;;;;;;;;;5.00;2.33;;;;;24.95;57.98;101868.84;1987082;28;2750385;-76
2023/08/20 00:22:25;;;;;;;;;4.00;3.00;;;;;24.92;58.86;101867.25;1987618;28;2746131;-76
2023/08/20 00:23:36;;;;;;;;;4.00;3.00;;;;;24.91;58.76;101865.56;1987412;28;2746154;-74
2023/08/20 00:24:47;;;;;;;;;3.00;3.00;;;;;24.89;58.55;101872.03;1987840;28;2737801;-74
2023/08/20 00:25:58;;;;;;;;;3.00;3.00;;;;;24.88;57.84;101865.78;1993803;28;2753438;-74
2023/08/20 00:27:09;;;;;;;;;3.33;2.00;;;;;24.86;58.11;101867.75;1992930;28;2747207;-74
2023/08/20 00:28:20;;;;;;;;;2.00;2.00;;;;;24.86;57.55;101874.94;1992327;28;2747236;-74
2023/08/20 00:29:34;;;;;;;;;2.67;2.50;;;;;24.82;58.29;101866.25;2010032;28;2722162;-73
2023/08/20 00:30:44;;;;;;;;;2.33;2.33;;;;;24.81;57.93;101869.94;1964434;28;2733626;-74
2023/08/20 00:31:55;;;;;;;;;2.00;2.00;;;;;24.78;58.18;101870.16;1987349;28;2741963;-74
2023/08/20 00:33:06;;;;;;;;;2.67;2.67;;;;;24.77;57.36;101873.84;2011670;28;2729433;-74
2023/08/20 00:34:16;;;;;;;;;2.67;2.00;;;;;24.75;58.21;101873.94;1986396;28;2752359;-75
2023/08/20 00:35:27;;;;;;;;;2.00;2.00;;;;;24.73;57.49;101879.44;1995724;28;3458575;-75
2023/08/20 00:36:39;;;;;;;;;4.00;3.00;;;;;24.71;57.13;101880.53;2008708;28;2731521;-75
2023/08/20 00:37:52;;;;;;;;;2.00;2.00;;;;;24.68;57.23;101876.25;2010450;28;2731620;-74
2023/08/20 00:39:06;;;;;;;;;1.83;1.83;;;;;24.67;57.78;101873.69;1983414;28;2727358;-74
2023/08/20 00:40:19;;;;;;;;;3.50;2.00;;;;;24.66;58.11;101875.50;1990040;28;2748178;-74
2023/08/20 00:41:32;;;;;;;;;4.33;3.33;;;;;24.65;58.79;101875.59;1989434;28;2748210;-74
2023/08/20 00:42:45;;;;;;;;;3.33;2.83;;;;;24.65;57.68;101876.47;1989028;28;2746143;-74
2023/08/20 00:43:55;;;;;;;;;2.00;2.00;;;;;24.64;57.50;101874.75;1965061;28;2748194;-74
2023/08/20 00:45:07;;;;;;;;;5.00;3.00;;;;;24.62;57.64;101879.38;2004338;28;2744020;-74
2023/08/20 00:46:19;;;;;;;;;2.00;2.00;;;;;24.61;57.93;101873.16;2012011;28;2732569;-74
2023/08/20 00:47:30;;;;;;;;;3.00;2.33;;;;;24.61;57.60;101877.69;1963665;28;2749315;-74
2023/08/20 00:48:42;;;;;;;;;3.00;3.00;;;;;24.59;57.99;101877.81;2006043;28;2732639;-74
2023/08/20 00:49:55;;;;;;;;;2.33;2.33;;;;;24.58;56.97;101877.91;1988599;28;2738828;-74
2023/08/20 00:51:09;;;;;;;;;3.00;2.00;;;;;24.57;57.31;101886.94;1991529;28;2751308;-73
2023/08/20 00:52:21;;;;;;;;;2.00;2.00;;;;;24.56;57.30;101886.09;1964970;28;2739953;-73
2023/08/20 00:53:32;;;;;;;;;2.67;2.00;;;;;24.55;58.36;101891.56;1986728;28;2753490;-73
2023/08/20 00:54:48;;;;;;;;;4.25;2.25;;;;;24.55;57.72;101888.88;2011252;28;2754950;-73
2023/08/20 00:55:58;;;;;;;;;2.33;2.00;;;;;24.54;57.49;101895.25;1985752;28;2744141;-73
2023/08/20 00:57:09;;;;;;;;;3.67;2.00;;;;;24.52;57.23;101886.44;2001251;28;2741924;-73
2023/08/20 00:58:21;;;;;;;;;3.75;3.00;;;;;24.50;57.21;101892.78;2009426;28;2733591;-72
2023/08/20 00:59:34;;;;;;;;;2.00;2.00;;;;;24.49;56.73;101888.38;2010403;28;2739857;-72
2023/08/20 01:00:45;;;;;;;;;6.33;3.00;;;;;24.49;57.91;101891.06;1966157;28;2740930;-72
2023/08/20 01:01:56;;;;;;;;;3.00;3.00;;;;;24.47;57.63;101886.78;2011123;28;2739901;-72
2023/08/20 01:03:09;;;;;;;;;4.67;2.00;;;;;24.49;57.68;101899.13;1990867;28;2746106;-72
2023/08/20 01:04:22;;;;;;;;;2.50;0.33;;;;;24.49;57.70;101893.75;1991067;28;2727353;-72
2023/08/20 01:05:41;;;;;;;;;4.00;3.00;;;;;24.49;57.79;101892.91;1993787;28;2739870;-72
2023/08/20 01:07:21;;;;;;;;;1.50;1.50;;;;;24.48;57.45;101889.34;1991955;28;2720091;-72
2023/08/20 01:08:40;;;;;;;;;3.00;1.83;;;;;24.45;57.52;101886.03;1985764;28;2748695;-72
2023/08/20 01:10:04;;;;;;;;;5.00;3.00;;;;;24.43;57.89;101894.19;1964691;28;2736825;-71
2023/08/20 01:11:25;;;;;;;;;4.33;2.67;;;;;24.42;58.27;101888.97;1984104;28;2741983;-71
2023/08/20 01:12:36;;;;;;;;;3.00;3.00;;;;;24.41;57.70;101880.03;1987134;28;2748186;-72
2023/08/20 01:13:46;;;;;;;;;3.00;3.00;;;;;24.41;58.33;101888.09;1987461;28;2740956;-72
2023/08/20 01:14:58;;;;;;;;;1.67;1.33;;;;;24.41;57.68;101885.41;2011317;28;2734629;-72
2023/08/20 01:16:11;;;;;;;;;2.00;2.00;;;;;24.41;58.67;101884.53;1982377;28;2724236;-72
2023/08/20 01:17:21;;;;;;;;;4.00;2.00;;;;;24.41;57.31;101889.91;1962709;28;2750816;-71
2023/08/20 01:18:33;;;;;;;;;3.00;2.00;;;;;24.37;57.76;101878.56;2008625;28;2743021;-72
2023/08/20 01:19:43;;;;;;;;;3.67;2.00;;;;;24.36;57.59;101885.75;1964768;28;2740980;-71
2023/08/20 01:21:11;;;;;;;;;2.00;2.00;;;;;24.34;57.49;101889.53;1990908;28;2750286;-71
2023/08/20 01:22:44;;;;;;;;;3.67;2.00;;;;;24.32;57.45;101883.41;1987560;28;2737812;-71
2023/08/20 01:24:15;;;;;;;;;3.83;1.33;;;;;24.30;57.38;101882.66;2013067;28;2727391;-71
2023/08/20 01:25:44;;;;;;;;;3.67;2.00;;;;;24.27;57.25;101889.13;1957974;28;2754451;-71
2023/08/20 01:27:14;;;;;;;;;3.67;2.33;;;;;24.23;58.29;101887.59;1987546;28;2745079;-71
2023/08/20 01:28:30;;;;;;;;;4.00;2.33;;;;;24.21;57.64;101890.41;1987231;28;2745109;-72
2023/08/20 01:29:43;;;;;;;;;2.33;2.33;;;;;24.20;57.05;101894.03;2020510;28;2730483;-72
2023/08/20 01:30:59;;;;;;;;;4.00;2.00;;;;;24.17;57.15;101891.59;1970662;28;2753493;-72
2023/08/20 01:32:11;;;;;;;;;2.00;2.00;;;;;24.14;57.56;101891.81;1986176;28;2744063;-73
2023/08/20 01:33:23;;;;;;;;;2.00;2.00;;;;;24.11;57.84;101892.91;1979445;28;2751375;-73
2023/08/20 01:34:37;;;;;;;;;2.33;2.00;;;;;24.11;58.39;101892.03;2012171;28;2744531;-74
2023/08/20 01:35:47;;;;;;;;;2.67;2.00;;;;;24.10;58.68;101899.22;1963675;28;2754513;-74
2023/08/20 01:36:58;;;;;;;;;3.00;3.00;;;;;24.11;58.07;101900.09;2002636;28;2754514;-73
2023/08/20 01:38:09;;;;;;;;;2.00;2.00;;;;;24.11;57.92;101902.78;2000506;28;2741990;-73
2023/08/20 01:39:21;;;;;;;;;2.00;2.00;;;;;24.10;57.93;101906.44;2010654;28;2741944;-68
2023/08/20 01:40:31;;;;;;;;;3.00;3.00;;;;;24.10;57.61;101903.75;1986321;28;2745113;-71
2023/08/20 01:41:42;;;;;;;;;4.00;2.33;;;;;24.09;57.72;101907.41;2001423;28;2750953;-71
2023/08/20 01:42:53;;;;;;;;;2.00;2.00;;;;;24.08;57.25;101905.66;2011340;28;2739884;-70
2023/08/20 01:44:04;;;;;;;;;3.00;2.00;;;;;24.05;57.59;101899.56;1965337;28;2747168;-70
2023/08/20 01:45:15;;;;;;;;;3.00;3.00;;;;;24.03;57.93;101904.19;2001624;28;2750360;-72
2023/08/20 01:46:27;;;;;;;;;3.00;2.75;;;;;24.00;58.27;101896.34;2006070;28;2743025;-71
2023/08/20 01:47:40;;;;;;;;;2.00;1.83;;;;;24.00;58.81;101896.34;2013088;28;2735735;-71
2023/08/20 01:48:50;;;;;;;;;3.00;2.00;;;;;23.98;58.10;101895.59;1964741;28;2745069;-71
2023/08/20 01:50:02;;;;;;;;;2.33;1.00;;;;;23.98;59.06;101898.28;2009222;28;2744016;-71
2023/08/20 01:51:12;;;;;;;;;2.67;2.00;;;;;23.97;58.94;101888.53;1963673;28;2753425;-71
2023/08/20 01:52:23;;;;;;;;;1.00;1.00;;;;;23.97;57.90;101893.03;2009775;28;2728818;-71
2023/08/20 01:53:34;;;;;;;;;2.67;2.00;;;;;23.93;57.78;101887.88;1963434;28;3458617;-71
2023/08/20 01:54:46;;;;;;;;;2.67;2.67;;;;;23.91;58.03;101895.19;2011356;28;2731536;-73
2023/08/20 01:55:59;;;;;;;;;2.00;2.00;;;;;23.88;58.04;101899.94;1991549;28;2730459;-73
2023/08/20 01:57:09;;;;;;;;;4.00;4.00;;;;;23.87;58.19;101900.91;1961710;28;2744432;-74
2023/08/20 01:58:20;;;;;;;;;6.00;2.67;;;;;23.83;58.08;101893.06;1996237;28;2750346;-74
2023/08/20 01:59:32;;;;;;;;;2.25;1.75;;;;;23.83;58.04;101892.19;2010453;28;2739237;-73
2023/08/20 02:00:46;;;;;;;;;4.17;2.83;;;;;23.81;58.47;101897.69;2012583;28;2733651;-73
2023/08/20 02:01:56;;;;;;;;;3.00;3.00;;;;;23.80;58.80;101897.81;1963100;28;2736763;-73
2023/08/20 02:03:07;;;;;;;;;2.00;2.00;;;;;23.81;59.32;101903.06;2001526;28;2750277;-73
2023/08/20 02:04:18;;;;;;;;;1.00;1.00;;;;;23.81;59.67;101899.50;2004825;28;2733603;-72
2023/08/20 02:05:31;;;;;;;;;4.00;3.00;;;;;23.82;59.23;101907.47;1991206;28;2734637;-72
2023/08/20 02:06:44;;;;;;;;;1.00;1.00;;;;;23.82;59.55;101907.47;1990782;28;2731548;-73
2023/08/20 02:07:58;;;;;;;;;1.83;1.17;;;;;23.82;59.25;101903.91;1989714;28;2729449;-73
2023/08/20 02:09:08;;;;;;;;;4.00;3.00;;;;;23.83;59.56;101909.16;1963927;28;2742287;-73
2023/08/20 02:10:21;;;;;;;;;2.00;2.00;;;;;23.83;59.04;101906.50;2005191;28;2752349;-73
2023/08/20 02:11:35;;;;;;;;;2.67;2.00;;;;;23.80;59.45;101904.03;2013366;28;2738827;-73
2023/08/20 02:12:46;;;;;;;;;3.00;3.00;;;;;23.78;58.88;101902.44;1963754;28;2754552;-73
2023/08/20 02:13:57;;;;;;;;;2.33;2.33;;;;;23.75;58.95;101900.84;2000935;28;2753472;-73
2023/08/20 02:15:08;;;;;;;;;2.33;2.33;;;;;23.72;58.69;101901.03;1986720;28;3464860;-75
2023/08/20 02:16:22;;;;;;;;;2.33;2.33;;;;;23.70;59.45;101903.84;2006110;28;2746582;-75
2023/08/20 02:17:32;;;;;;;;;2.67;2.00;;;;;23.70;58.99;101901.16;1966399;28;2751315;-75
2023/08/20 02:18:43;;;;;;;;;4.33;3.00;;;;;23.67;58.92;101901.38;2002716;28;2734672;-75
2023/08/20 02:19:55;;;;;;;;;3.00;3.00;;;;;23.67;59.38;101908.56;2013325;28;2739888;-75
2023/08/20 02:21:05;;;;;;;;;2.67;2.33;;;;;23.65;59.69;101910.50;1982665;28;2752390;-75
2023/08/20 02:22:17;;;;;;;;;1.33;1.33;;;;;23.66;59.54;101909.50;2001812;28;2747180;-75
2023/08/20 02:23:27;;;;;;;;;7.67;3.00;;;;;23.65;59.65;101906.00;1984215;28;2752699;-75
2023/08/20 02:24:38;;;;;;;;;2.67;2.67;;;;;23.66;60.05;101902.31;2012716;28;2741943;-75
2023/08/20 02:25:52;;;;;;;;;2.67;2.67;;;;;23.65;60.20;101913.19;1992129;28;2738808;-75
2023/08/20 02:27:03;;;;;;;;;3.00;3.00;;;;;23.63;59.86;101907.91;1966577;28;2740977;-75
2023/08/20 02:28:13;;;;;;;;;2.00;2.00;;;;;23.62;59.90;101906.19;1988360;28;2739856;-75
2023/08/20 02:29:24;;;;;;;;;5.67;2.33;;;;;23.61;59.90;101901.78;2001929;28;3457548;-75
2023/08/20 02:30:44;;;;;;;;;1.25;1.00;;;;;23.58;60.34;101905.53;2012736;28;2733600;-75
2023/08/20 02:31:57;;;;;;;;;4.17;3.00;;;;;23.57;59.90;101911.03;2013033;28;2733635;-74
2023/08/20 02:33:10;;;;;;;;;3.17;1.67;;;;;23.54;59.76;101904.06;1988321;28;2741932;-75
2023/08/20 02:34:21;;;;;;;;;2.00;2.00;;;;;23.51;60.14;101900.75;1965421;28;2741957;-75
2023/08/20 02:35:32;;;;;;;;;1.00;1.00;;;;;23.47;60.05;101900.06;2012496;28;2732589;-75
2023/08/20 02:36:45;;;;;;;;;2.00;2.00;;;;;23.45;59.72;101900.16;1990110;28;2730505;-75
2023/08/20 02:37:55;;;;;;;;;3.00;3.00;;;;;23.45;60.12;101893.94;1965490;28;2750299;-75
2023/08/20 02:39:07;;;;;;;;;4.33;3.00;;;;;23.43;60.64;101895.88;2012078;28;2735698;-74
2023/08/20 02:40:20;;;;;;;;;4.83;3.00;;;;;23.42;59.95;101897.69;2013761;28;2737795;-74
2023/08/20 02:41:35;;;;;;;;;3.17;3.00;;;;;23.40;60.27;101890.72;1991146;28;2724253;-74
2023/08/20 02:42:46;;;;;;;;;2.67;1.00;;;;;23.38;60.41;101896.22;1965706;28;2746110;-72
2023/08/20 02:43:57;;;;;;;;;2.67;2.67;;;;;23.33;60.78;101896.53;2004620;28;2746211;-72
2023/08/20 02:45:08;;;;;;;;;3.33;3.33;;;;;23.33;61.17;101895.66;1999756;28;2746083;-71
2023/08/20 02:46:22;;;;;;;;;2.50;2.50;;;;;23.32;60.45;101894.81;2014050;28;2740967;-73
2023/08/20 02:47:35;;;;;;;;;3.67;2.17;;;;;23.31;60.71;101898.44;1988452;28;2734760;-72
2023/08/20 02:48:45;;;;;;;;;3.33;2.00;;;;;23.29;59.91;101889.63;1964073;28;2750292;-72
2023/08/20 02:49:56;;;;;;;;;3.00;2.00;;;;;23.29;60.39;101899.50;2010794;28;2751339;-72
2023/08/20 02:51:06;;;;;;;;;4.67;3.33;;;;;23.28;60.50;101898.66;1994898;28;2749325;-72
2023/08/20 02:52:18;;;;;;;;;5.67;3.00;;;;;23.27;61.12;101899.63;2009883;28;2739849;-72
2023/08/20 02:53:29;;;;;;;;;3.50;2.50;;;;;23.29;60.95;101902.19;2011972;28;2741944;-72
2023/08/20 02:54:43;;;;;;;;;4.00;3.00;;;;;23.29;61.07;101900.38;1991165;28;2736731;-73
2023/08/20 02:55:56;;;;;;;;;3.00;2.00;;;;;23.28;61.34;101901.34;1990489;28;2730965;-73
2023/08/20 02:57:09;;;;;;;;;3.00;2.67;;;;;23.30;61.75;101895.88;1991170;28;2740914;-72
2023/08/20 02:58:19;;;;;;;;;2.67;2.00;;;;;23.30;61.00;101901.22;1963283;28;2750279;-73
2023/08/20 02:59:31;;;;;;;;;3.00;2.00;;;;;23.29;61.07;101895.00;2009617;28;2748178;-74
2023/08/20 03:00:45;;;;;;;;;4.00;2.33;;;;;23.30;60.44;101904.78;1960651;28;2754585;-75
2023/08/20 03:01:55;;;;;;;;;3.00;3.00;;;;;23.32;61.00;101894.81;1986311;28;2740927;-74
2023/08/20 03:03:08;;;;;;;;;2.67;2.00;;;;;23.33;60.27;101896.53;2012281;28;2741959;-74
2023/08/20 03:04:21;;;;;;;;;2.00;1.17;;;;;23.34;60.49;101897.38;2011712;28;2726301;-74
2023/08/20 03:05:34;;;;;;;;;2.67;1.50;;;;;23.34;60.48;101895.53;1995838;28;2733611;-73
2023/08/20 03:06:45;;;;;;;;;3.00;3.00;;;;;23.36;60.05;101900.81;1966666;28;2740895;-72
2023/08/20 03:07:56;;;;;;;;;2.67;2.67;;;;;23.36;60.83;101896.28;2004447;28;2753461;-72
2023/08/20 03:09:07;;;;;;;;;2.00;2.00;;;;;23.36;60.15;101895.47;2011389;28;2748210;-73
2023/08/20 03:10:20;;;;;;;;;2.83;2.83;;;;;23.34;60.04;101895.53;1988140;28;2739959;-73
2023/08/20 03:11:30;;;;;;;;;3.67;2.33;;;;;23.35;60.03;101891.03;1959255;28;2750300;-73
2023/08/20 03:12:41;;;;;;;;;3.00;3.00;;;;;23.33;59.67;101893.84;1999112;28;2748195;-74
2023/08/20 03:13:52;;;;;;;;;2.00;2.00;;;;;23.31;59.79;101890.38;1999901;28;2750250;-74
2023/08/20 03:15:03;;;;;;;;;1.33;1.33;;;;;23.30;60.18;101896.72;2012091;28;2733772;-74
2023/08/20 03:16:17;;;;;;;;;3.00;2.67;;;;;23.29;59.99;101895.00;1983602;28;2733623;-74
2023/08/20 03:17:27;;;;;;;;;4.00;3.00;;;;;23.30;60.74;101894.06;1962262;28;2754464;-74
2023/08/20 03:18:38;;;;;;;;;2.00;2.00;;;;;23.32;60.48;101901.97;2004341;28;2748185;-74
2023/08/20 03:19:59;;;;;;;;;2.00;2.00;;;;;23.35;60.70;101899.09;2001517;28;2746099;-74
2023/08/20 03:21:10;;;;;;;;;3.00;2.00;;;;;23.37;60.66;101914.13;1980819;28;2744080;-74
2023/08/20 03:22:21;;;;;;;;;3.67;3.00;;;;;23.36;61.06;101900.81;2004110;28;2746107;-74
2023/08/20 03:23:32;;;;;;;;;3.67;3.00;;;;;23.38;60.30;101906.94;2012513;28;2733588;-74
2023/08/20 03:24:45;;;;;;;;;2.50;2.50;;;;;23.36;60.82;101908.88;1992151;28;2727353;-74
2023/08/20 03:26:02;;;;;;;;;3.67;3.00;;;;;23.35;61.03;101896.41;1990176;28;2731895;-74
2023/08/20 03:27:12;;;;;;;;;5.67;2.00;;;;;23.34;60.35;101905.41;1965237;28;2753388;-75
2023/08/20 03:28:23;;;;;;;;;3.33;2.00;;;;;23.31;61.10;101893.06;2012049;28;2739849;-75
2023/08/20 03:29:37;;;;;;;;;2.00;2.00;;;;;23.30;60.12;101896.72;2013470;28;2734641;-75
2023/08/20 03:30:50;;;;;;;;;2.50;2.00;;;;;23.28;60.25;101896.00;1987515;28;2734676;-76
2023/08/20 03:32:03;;;;;;;;;2.00;2.00;;;;;23.27;59.85;101891.56;1991494;28;2737785;-75
2023/08/20 03:33:14;;;;;;;;;2.00;2.00;;;;;23.26;60.13;101900.59;1964699;28;2753525;-75
2023/08/20 03:34:25;;;;;;;;;3.00;3.00;;;;;23.24;60.53;101889.97;1988168;28;2750670;-74
2023/08/20 03:35:36;;;;;;;;;3.00;3.00;;;;;23.23;60.62;101899.00;2016486;28;2736763;-74
2023/08/20 03:36:49;;;;;;;;;3.67;3.67;;;;;23.23;60.04;101892.75;2009853;28;2744038;-74
2023/08/20 03:38:02;;;;;;;;;3.00;2.17;;;;;23.22;60.13;101894.56;1991771;28;2729469;-73
2023/08/20 03:39:15;;;;;;;;;2.83;2.50;;;;;23.21;60.89;101892.84;1990255;28;2734637;-70
2023/08/20 03:40:27;;;;;;;;;3.00;3.00;;;;;23.21;60.22;101894.69;1963600;28;2753431;-70
2023/08/20 03:41:37;;;;;;;;;5.33;3.00;;;;;23.20;61.14;101890.28;1982923;28;2746625;-70
2023/08/20 03:42:48;;;;;;;;;3.00;3.00;;;;;23.21;61.10;101886.66;2002711;28;2746095;-70
2023/08/20 03:43:59;;;;;;;;;3.00;2.00;;;;;23.21;60.54;101894.69;2012060;28;2727828;-69
2023/08/20 03:45:13;;;;;;;;;2.50;2.50;;;;;23.20;60.53;101891.16;1990332;28;2735685;-69
2023/08/20 03:46:23;;;;;;;;;5.33;1.00;;;;;23.19;61.31;101892.09;1962643;28;2742971;-70
2023/08/20 03:47:34;;;;;;;;;2.00;2.00;;;;;23.19;60.59;101900.16;2003343;28;2750250;-70
2023/08/20 03:48:45;;;;;;;;;1.33;1.33;;;;;23.16;60.55;101895.00;1999714;28;2735725;-70
2023/08/20 03:49:56;;;;;;;;;2.00;2.00;;;;;23.16;60.56;101903.06;2001393;28;2748262;-70
2023/08/20 03:51:07;;;;;;;;;3.00;2.00;;;;;23.13;60.92;101893.41;1994201;28;2746201;-70
2023/08/20 03:52:17;;;;;;;;;6.00;3.00;;;;;23.12;60.39;101898.84;1998083;28;2748285;-70
2023/08/20 03:53:28;;;;;;;;;4.00;2.00;;;;;23.08;60.98;101895.53;2012011;28;2733615;-70
2023/08/20 03:54:42;;;;;;;;;4.00;3.00;;;;;23.05;60.94;101898.41;1990401;28;2736730;-70
2023/08/20 03:55:52;;;;;;;;;3.00;2.00;;;;;23.04;60.59;101896.69;1966767;28;2746114;-70
2023/08/20 03:57:03;;;;;;;;;1.00;1.00;;;;;23.03;61.03;101897.66;2011102;28;2737212;-72
2023/08/20 03:58:17;;;;;;;;;2.33;2.33;;;;;23.00;61.21;101900.56;2008434;28;2730487;-72
2023/08/20 03:59:27;;;;;;;;;2.00;1.67;;;;;22.97;61.24;101900.75;1965443;28;2746146;-72
2023/08/20 04:00:38;;;;;;;;;3.00;3.00;;;;;22.95;61.38;101897.31;2001245;28;2754441;-72
2023/08/20 04:01:50;;;;;;;;;2.00;2.00;;;;;22.93;61.67;101894.75;2011659;28;2744020;-73
2023/08/20 04:03:04;;;;;;;;;2.17;2.17;;;;;22.90;61.32;101898.50;2012914;28;2726335;-72
2023/08/20 04:04:17;;;;;;;;;2.67;2.00;;;;;22.88;61.29;101902.25;1989209;28;2744079;-72
2023/08/20 04:05:27;;;;;;;;;2.33;2.00;;;;;22.86;61.43;101905.03;1971167;28;2747187;-72
2023/08/20 04:06:38;;;;;;;;;2.67;2.00;;;;;22.83;61.53;101899.88;2012148;28;2735165;-72
2023/08/20 04:07:52;;;;;;;;;2.33;2.00;;;;;22.79;61.66;101898.38;2008664;28;2726317;-72
2023/08/20 04:09:03;;;;;;;;;4.00;2.00;;;;;22.77;61.26;101898.47;1964001;28;2750260;-73
2023/08/20 04:10:16;;;;;;;;;2.83;2.17;;;;;22.75;61.55;101899.53;2012986;28;2738831;-72
2023/08/20 04:11:26;;;;;;;;;4.00;3.00;;;;;22.72;61.93;101902.44;1964187;28;2754556;-73
2023/08/20 04:12:37;;;;;;;;;2.33;2.00;;;;;22.67;61.37;101895.50;2012050;28;2737789;-73
2023/08/20 04:13:48;;;;;;;;;3.00;2.00;;;;;22.65;61.74;101902.78;1987139;28;2748305;-72
2023/08/20 04:14:59;;;;;;;;;3.67;3.00;;;;;22.61;61.59;101901.28;2011443;28;2741932;-72
2023/08/20 04:16:09;;;;;;;;;2.00;2.00;;;;;22.59;62.20;101901.38;1958437;28;2754487;-72
2023/08/20 04:17:22;;;;;;;;;3.00;3.00;;;;;22.57;62.37;101905.16;2012127;28;2733648;-72
2023/08/20 04:18:32;;;;;;;;;4.00;3.67;;;;;22.56;62.52;101898.91;1989203;28;2750334;-72
2023/08/20 04:19:43;;;;;;;;;3.33;3.00;;;;;22.56;62.79;101908.78;2005944;28;2735687;-73
2023/08/20 04:20:55;;;;;;;;;5.00;2.00;;;;;22.58;62.44;101917.56;1986198;28;2734652;-73
2023/08/20 04:22:08;;;;;;;;;3.50;2.00;;;;;22.56;62.38;101914.13;2013473;28;2737778;-73
2023/08/20 04:23:21;;;;;;;;;5.00;2.50;;;;;22.58;62.86;101925.59;1990120;28;2750619;-71
2023/08/20 04:24:32;;;;;;;;;3.33;2.00;;;;;22.58;63.33;101925.59;1965179;28;2752356;-71
2023/08/20 04:25:44;;;;;;;;;2.33;2.33;;;;;22.57;62.47;101922.06;2010880;28;2744012;-71
2023/08/20 04:26:54;;;;;;;;;3.00;3.00;;;;;22.57;62.59;101926.56;1986904;28;2751393;-71
2023/08/20 04:28:05;;;;;;;;;3.67;2.00;;;;;22.55;62.97;101928.47;2006261;28;2753384;-71
2023/08/20 04:29:16;;;;;;;;;4.00;3.00;;;;;22.53;62.84;101930.41;1985962;28;2741948;-71
2023/08/20 04:30:27;;;;;;;;;2.00;2.00;;;;;22.50;62.51;101928.78;2011793;28;2735715;-71
2023/08/20 04:31:37;;;;;;;;;3.00;2.00;;;;;22.47;62.85;101927.16;1966156;28;2739880;-72
2023/08/20 04:32:48;;;;;;;;;4.00;2.00;;;;;22.42;63.14;101929.28;2002840;28;2750407;-72
2023/08/20 04:33:59;;;;;;;;;4.33;4.33;;;;;22.40;62.84;101927.69;1995969;28;2754531;-72
2023/08/20 04:35:10;;;;;;;;;3.67;2.33;;;;;22.38;62.74;101917.03;2001089;28;2745088;-72
2023/08/20 04:36:21;;;;;;;;;4.00;2.33;;;;;22.35;63.29;101925.28;2011627;28;2734645;-72
2023/08/20 04:37:31;;;;;;;;;2.00;2.00;;;;;22.35;63.64;101928.81;1957694;28;2749213;-72
2023/08/20 04:38:42;;;;;;;;;4.33;3.00;;;;;22.34;63.36;101926.25;2010543;28;2735690;-71
2023/08/20 04:39:53;;;;;;;;;3.00;2.00;;;;;22.33;63.23;101919.16;1987046;28;2746095;-71
2023/08/20 04:41:04;;;;;;;;;4.00;2.00;;;;;22.32;63.15;101928.16;2001856;28;2752356;-69
2023/08/20 04:42:15;;;;;;;;;3.33;2.00;;;;;22.31;63.27;101924.63;2000359;28;2747259;-69
2023/08/20 04:43:25;;;;;;;;;2.67;2.00;;;;;22.30;63.87;101924.75;1997304;28;2737805;-69
2023/08/20 04:44:36;;;;;;;;;5.00;3.67;;;;;22.29;63.91;101923.88;1995836;28;2754896;-69
2023/08/20 04:45:47;;;;;;;;;4.33;2.67;;;;;22.30;63.36;101930.94;2000382;28;2750380;-69
2023/08/20 04:47:00;;;;;;;;;4.00;3.00;;;;;22.29;63.74;101923.88;1999907;28;2744110;-69
2023/08/20 04:48:13;;;;;;;;;4.33;3.00;;;;;22.29;63.92;101928.34;2012480;28;2745049;-69
2023/08/20 04:49:28;;;;;;;;;3.33;3.00;;;;;22.30;63.02;101924.75;1989044;28;2737792;-70
2023/08/20 04:50:41;;;;;;;;;4.00;2.83;;;;;22.29;63.72;101923.88;1990515;28;2731540;-70
2023/08/20 04:51:54;;;;;;;;;1.67;1.67;;;;;22.29;63.64;101925.69;1988978;28;2739853;-69
2023/08/20 04:53:05;;;;;;;;;6.00;5.00;;;;;22.29;63.56;101931.91;1964341;28;3470044;-69
2023/08/20 04:54:16;;;;;;;;;3.00;2.00;;;;;22.30;64.05;101930.09;2005875;28;2726346;-69
2023/08/20 04:55:27;;;;;;;;;2.33;2.33;;;;;22.31;64.17;101926.44;1966503;28;2748210;-69
2023/08/20 04:56:40;;;;;;;;;1.67;1.67;;;;;22.33;64.06;101921.84;2011893;28;2735686;-69
2023/08/20 04:57:51;;;;;;;;;5.00;4.00;;;;;22.35;63.61;101922.59;1963858;28;2749225;-71
2023/08/20 04:59:02;;;;;;;;;4.33;3.00;;;;;22.36;63.53;101930.53;2011701;28;2739860;-72
2023/08/20 05:00:15;;;;;;;;;2.67;2.67;;;;;22.37;64.24;101931.41;2013094;28;2730486;-72
2023/08/20 05:01:26;;;;;;;;;4.00;3.00;;;;;22.38;63.92;101941.16;1964490;28;2737781;-72
2023/08/20 05:02:37;;;;;;;;;3.33;2.33;;;;;22.38;63.97;101938.47;2000913;28;2740218;-72
2023/08/20 05:03:48;;;;;;;;;5.00;3.67;;;;;22.39;64.36;101940.19;2008702;28;2738823;-72
2023/08/20 05:04:58;;;;;;;;;3.67;3.67;;;;;22.43;63.55;101944.38;1960360;28;2749256;-72
2023/08/20 05:06:09;;;;;;;;;3.00;2.00;;;;;22.43;63.40;101941.72;2008562;28;2746126;-72
2023/08/20 05:07:20;;;;;;;;;5.00;2.33;;;;;22.42;63.78;101942.66;1998778;28;2732558;-70
2023/08/20 05:08:31;;;;;;;;;4.00;3.33;;;;;22.41;63.08;101942.78;1990861;28;2748271;-70
2023/08/20 05:09:42;;;;;;;;;4.67;3.33;;;;;22.37;63.48;101940.28;1995177;28;2746096;-70
2023/08/20 05:10:53;;;;;;;;;3.33;3.00;;;;;22.35;63.34;101935.97;2011099;28;2735709;-69
2023/08/20 05:12:03;;;;;;;;;3.33;2.00;;;;;22.32;63.95;101938.88;1964824;28;2752373;-69
2023/08/20 05:13:14;;;;;;;;;3.00;2.00;;;;;22.30;63.49;101936.28;2001793;28;3457517;-70
2023/08/20 05:14:26;;;;;;;;;2.50;2.50;;;;;22.28;64.01;101940.00;2004390;28;2737782;-70
2023/08/20 05:15:39;;;;;;;;;3.00;3.00;;;;;22.26;63.80;101942.81;2009517;28;2739865;-70
2023/08/20 05:16:52;;;;;;;;;1.67;1.67;;;;;22.25;64.45;101949.09;1989200;28;2733644;-70
2023/08/20 05:18:02;;;;;;;;;4.67;3.67;;;;;22.25;64.22;101949.09;1965307;28;2746519;-71
2023/08/20 05:19:14;;;;;;;;;3.00;1.67;;;;;22.26;64.31;101949.03;2010615;28;2739910;-71
2023/08/20 05:20:24;;;;;;;;;6.00;3.67;;;;;22.28;64.44;101948.91;1957611;28;2751319;-71
2023/08/20 05:21:35;;;;;;;;;5.00;3.00;;;;;22.28;64.32;101948.03;2008821;28;2739856;-71
2023/08/20 05:22:48;;;;;;;;;3.00;3.00;;;;;22.26;64.17;101946.34;1988114;28;2735668;-71
2023/08/20 05:23:59;;;;;;;;;3.00;3.00;;;;;22.25;64.16;101941.94;1958634;28;2746135;-71
2023/08/20 05:25:10;;;;;;;;;3.33;3.00;;;;;22.25;64.04;101941.06;2009988;28;2735778;-71
2023/08/20 05:26:22;;;;;;;;;3.67;2.33;;;;;22.26;64.59;101951.69;1986277;28;2729440;-71
2023/08/20 05:27:32;;;;;;;;;4.33;3.67;;;;;22.28;64.62;101953.41;1986851;28;2746160;-69
2023/08/20 05:28:43;;;;;;;;;4.00;2.00;;;;;22.29;64.31;101949.78;2011472;28;2741945;-69